Time;durP1;ratioP1;P1;durP2;ratioP2;P2;SDS_P1;SDS_P2;PMS_P1;PMS_P2;Temp;Humidity;BMP_temperature;BMP_pressure;BME280_temperature;BME280_humidity;BME280_pressure;Samples;Min_cycle;Max_cycle;Signal;HPM_P1;HPM_P2
2023/10/25 00:01:20;;;;;;;15.23;8.10;;;9.80;99.90;;;;;;6206039;23;20017;-82
2023/10/25 00:03:46;;;;;;;15.68;8.52;;;9.70;99.90;;;;;;6206978;23;20016;-82
2023/10/25 00:06:11;;;;;;;15.80;8.18;;;9.80;99.90;;;;;;6181664;23;20012;-82
2023/10/25 00:08:37;;;;;;;12.32;8.40;;;9.70;99.90;;;;;;6182072;23;20070;-82
2023/10/25 00:11:09;;;;;;;13.75;7.97;;;9.60;99.90;;;;;;6204189;23;20016;-82
2023/10/25 00:13:35;;;;;;;13.32;8.60;;;9.70;99.90;;;;;;6206026;23;20449;-82
2023/10/25 00:16:02;;;;;;;13.70;7.95;;;9.60;99.90;;;;;;6206417;23;20031;-82
2023/10/25 00:18:28;;;;;;;18.15;8.40;;;9.60;99.90;;;;;;6206768;23;20456;-81
2023/10/25 00:20:54;;;;;;;15.70;8.38;;;9.60;99.90;;;;;;6206677;23;20062;-81
2023/10/25 00:23:21;;;;;;;14.20;7.88;;;9.60;99.90;;;;;;6207819;23;20016;-82
2023/10/25 00:25:49;;;;;;;13.82;8.05;;;9.50;99.90;;;;;;6180348;23;20254;-82
2023/10/25 00:28:15;;;;;;;18.45;8.40;;;9.60;99.90;;;;;;6207989;23;20320;-82
2023/10/25 00:30:40;;;;;;;14.80;7.55;;;9.60;99.90;;;;;;6208039;23;20012;-82
2023/10/25 00:33:06;;;;;;;14.35;8.30;;;9.50;99.90;;;;;;6208261;23;20147;-83
2023/10/25 00:35:32;;;;;;;20.48;9.35;;;9.40;99.90;;;;;;6208086;23;20130;-82
2023/10/25 00:37:58;;;;;;;13.02;7.97;;;9.40;99.90;;;;;;6208624;23;20066;-82
2023/10/25 00:40:24;;;;;;;16.02;7.75;;;9.40;99.90;;;;;;6180585;23;20015;-82
2023/10/25 00:42:49;;;;;;;14.07;8.38;;;9.50;99.90;;;;;;6207588;23;20026;-82
2023/10/25 00:45:15;;;;;;;18.75;8.13;;;9.40;99.90;;;;;;6207382;23;20437;-82
2023/10/25 00:47:43;;;;;;;12.07;7.35;;;9.40;99.90;;;;;;6182775;23;20058;-81
2023/10/25 00:50:10;;;;;;;16.20;7.95;;;9.40;99.90;;;;;;6182887;23;20015;-82
2023/10/25 00:52:39;;;;;;;15.43;8.20;;;9.30;99.90;;;;;;6207599;23;20012;-82
2023/10/25 00:55:06;;;;;;;17.90;8.50;;;9.30;99.90;;;;;;6205442;23;20246;-82
2023/10/25 00:57:32;;;;;;;15.55;8.07;;;9.40;99.90;;;;;;6206897;23;20016;-82
2023/10/25 01:00:00;;;;;;;15.60;7.95;;;9.30;99.90;;;;;;6206401;23;20019;-81
2023/10/25 01:02:26;;;;;;;13.43;8.40;;;9.30;99.90;;;;;;6207084;23;20118;-82
2023/10/25 01:04:52;;;;;;;14.35;8.48;;;9.30;99.90;;;;;;6207462;23;20468;-82
2023/10/25 01:07:17;;;;;;;15.77;8.68;;;9.30;99.90;;;;;;6180986;23;20019;-82
2023/10/25 01:09:43;;;;;;;14.80;8.52;;;9.30;99.90;;;;;;6207695;23;20008;-81
2023/10/25 01:12:09;;;;;;;17.48;8.05;;;9.20;99.90;;;;;;6204833;23;20048;-82
2023/10/25 01:14:36;;;;;;;12.73;8.40;;;9.20;99.90;;;;;;6207671;23;20612;-82
2023/10/25 01:17:02;;;;;;;16.35;8.70;;;9.10;99.90;;;;;;6232200;23;20586;-81
2023/10/25 01:19:28;;;;;;;12.40;8.02;;;9.20;99.90;;;;;;6208227;23;20024;-82
2023/10/25 01:21:53;;;;;;;16.58;7.97;;;9.20;99.90;;;;;;6205853;23;20081;-82
2023/10/25 01:24:21;;;;;;;13.23;7.93;;;9.10;99.90;;;;;;6207707;23;20019;-82
2023/10/25 01:26:46;;;;;;;11.50;7.28;;;9.20;99.90;;;;;;6179465;23;20111;-81
2023/10/25 01:29:12;;;;;;;13.07;7.63;;;9.10;99.90;;;;;;6207382;23;20562;-82
2023/10/25 01:31:37;;;;;;;17.33;7.68;;;9.10;99.90;;;;;;6207066;23;20012;-82
2023/10/25 01:34:03;;;;;;;17.02;8.27;;;9.00;99.90;;;;;;6207485;23;20091;-82
2023/10/25 01:36:29;;;;;;;17.77;8.05;;;9.00;99.90;;;;;;6181178;23;20016;-82
2023/10/25 01:38:54;;;;;;;13.75;7.55;;;9.00;99.90;;;;;;6207503;23;20016;-82
2023/10/25 01:41:20;;;;;;;13.73;7.60;;;8.90;99.90;;;;;;6204346;23;20016;-82
2023/10/25 01:43:46;;;;;;;20.67;8.50;;;9.00;99.90;;;;;;6207839;23;20174;-82
2023/10/25 01:46:12;;;;;;;14.30;8.15;;;8.80;99.90;;;;;;6207290;23;20027;-82
2023/10/25 01:48:37;;;;;;;15.10;8.75;;;8.80;99.90;;;;;;6207327;23;20051;-82
2023/10/25 01:51:06;;;;;;;15.52;8.23;;;9.00;99.90;;;;;;6207108;23;20012;-82
2023/10/25 01:53:33;;;;;;;17.13;8.77;;;9.00;99.90;;;;;;6207567;23;20166;-82
2023/10/25 01:55:59;;;;;;;19.75;8.30;;;9.00;99.90;;;;;;6203603;23;20455;-82
2023/10/25 01:58:25;;;;;;;15.63;8.48;;;8.90;99.90;;;;;;6207631;23;20387;-82
2023/10/25 02:00:51;;;;;;;14.10;8.68;;;9.00;99.90;;;;;;6206371;23;20016;-82
2023/10/25 02:03:16;;;;;;;15.98;8.43;;;8.90;99.90;;;;;;6207414;23;20066;-82
2023/10/25 02:05:42;;;;;;;15.73;8.82;;;8.90;99.90;;;;;;6205790;23;20016;-82
2023/10/25 02:08:07;;;;;;;13.95;8.32;;;8.90;99.90;;;;;;6206859;23;20012;-82
2023/10/25 02:10:34;;;;;;;11.70;8.40;;;8.90;99.90;;;;;;6179224;23;20016;-82
2023/10/25 02:13:00;;;;;;;18.98;8.20;;;8.80;99.90;;;;;;6181807;23;20556;-82
2023/10/25 02:15:27;;;;;;;17.55;8.98;;;8.80;99.90;;;;;;6206884;23;20023;-82
2023/10/25 02:17:52;;;;;;;18.17;8.85;;;8.90;99.90;;;;;;6207791;23;20445;-82
2023/10/25 02:20:18;;;;;;;15.85;9.80;;;8.80;99.90;;;;;;6207921;23;20084;-81
2023/10/25 02:22:44;;;;;;;16.45;9.60;;;8.90;99.90;;;;;;6183666;23;20016;-82
2023/10/25 02:25:09;;;;;;;16.00;9.75;;;8.90;99.90;;;;;;6206647;23;20559;-82
2023/10/25 02:27:35;;;;;;;17.40;9.30;;;8.90;99.90;;;;;;6208523;23;20023;-82
2023/10/25 02:30:01;;;;;;;16.65;9.48;;;9.00;99.90;;;;;;6208839;23;20399;-82
2023/10/25 02:32:26;;;;;;;20.58;10.50;;;9.10;99.90;;;;;;6209028;23;20020;-82
2023/10/25 02:34:52;;;;;;;20.10;9.52;;;8.90;99.90;;;;;;6183914;23;20035;-82
2023/10/25 02:37:18;;;;;;;20.80;10.18;;;8.80;99.90;;;;;;6209114;23;20367;-82
2023/10/25 02:39:44;;;;;;;15.00;9.45;;;8.80;99.90;;;;;;6208461;23;20016;-82
2023/10/25 02:42:12;;;;;;;17.98;10.15;;;8.80;99.90;;;;;;6206816;23;20060;-81
2023/10/25 02:44:38;;;;;;;15.00;10.35;;;9.00;99.90;;;;;;6209621;23;20026;-82
2023/10/25 02:47:05;;;;;;;21.35;10.45;;;8.90;99.90;;;;;;6208327;23;20024;-81
2023/10/25 02:49:33;;;;;;;21.20;10.75;;;8.90;99.90;;;;;;6184031;23;20013;-81
2023/10/25 02:51:59;;;;;;;19.00;10.80;;;8.90;99.90;;;;;;6232549;23;20016;-82
2023/10/25 02:54:24;;;;;;;17.92;11.13;;;8.90;99.90;;;;;;6183518;23;20031;-82
2023/10/25 02:56:50;;;;;;;22.17;12.02;;;8.90;99.90;;;;;;6180757;23;20016;-82
2023/10/25 02:59:16;;;;;;;19.27;11.98;;;8.70;99.90;;;;;;6208012;23;20208;-82
2023/10/25 03:01:42;;;;;;;19.58;11.90;;;8.90;99.90;;;;;;6183575;23;20058;-82
2023/10/25 03:04:08;;;;;;;23.63;12.00;;;8.80;99.90;;;;;;6208833;23;20607;-82
2023/10/25 03:06:34;;;;;;;24.83;12.30;;;8.80;99.90;;;;;;6207256;23;20039;-82
2023/10/25 03:08:59;;;;;;;20.67;12.50;;;8.90;99.90;;;;;;6208400;23;20452;-81
2023/10/25 03:11:25;;;;;;;27.25;13.32;;;8.70;99.90;;;;;;6205080;23;20102;-82
2023/10/25 03:13:51;;;;;;;24.60;12.70;;;8.80;99.90;;;;;;6208604;23;20015;-82
2023/10/25 03:16:16;;;;;;;23.05;12.95;;;8.80;99.90;;;;;;6182410;23;20042;-82
2023/10/25 03:18:42;;;;;;;22.52;12.77;;;8.70;99.90;;;;;;6208938;23;20062;-82
2023/10/25 03:21:08;;;;;;;21.35;13.38;;;8.80;99.90;;;;;;6182917;23;20095;-82
2023/10/25 03:23:34;;;;;;;22.15;12.70;;;8.90;99.90;;;;;;6207823;23;20496;-82
2023/10/25 03:26:06;;;;;;;23.30;13.52;;;8.90;99.90;;;;;;6205936;23;20413;-82
2023/10/25 03:28:34;;;;;;;;;;;8.90;99.90;;;;;;6183577;23;20106;-82
2023/10/25 03:31:10;;;;;;;22.25;14.95;;;8.80;99.90;;;;;;6206281;23;19943;-82
2023/10/25 03:33:36;;;;;;;25.85;14.57;;;8.80;99.90;;;;;;6183735;23;20018;-82
2023/10/25 03:36:01;;;;;;;24.27;13.93;;;8.90;99.90;;;;;;6182835;23;20027;-82
2023/10/25 03:38:28;;;;;;;24.35;14.75;;;8.90;99.90;;;;;;6208853;23;20020;-81
2023/10/25 03:41:05;;;;;;;19.42;13.07;;;8.90;99.90;;;;;;6204916;23;20076;-82
2023/10/25 03:43:31;;;;;;;23.85;13.25;;;8.90;99.90;;;;;;6233549;23;20819;-82
2023/10/25 03:46:05;;;;;;;23.65;14.15;;;8.80;99.90;;;;;;6233317;23;20050;-82
2023/10/25 03:48:33;;;;;;;25.70;14.17;;;8.80;99.90;;;;;;6182861;23;20016;-82
2023/10/25 03:50:58;;;;;;;26.45;14.05;;;8.80;99.90;;;;;;6207647;23;20113;-82
2023/10/25 03:53:24;;;;;;;26.83;14.05;;;8.80;99.90;;;;;;6208993;23;20027;-82
2023/10/25 03:55:55;;;;;;;20.70;13.82;;;8.90;99.90;;;;;;6205434;23;20062;-82
2023/10/25 03:58:21;;;;;;;19.35;13.35;;;8.90;99.90;;;;;;6234009;23;20016;-82
2023/10/25 04:00:47;;;;;;;22.33;13.40;;;8.80;99.90;;;;;;6207765;23;20047;-82
2023/10/25 04:03:13;;;;;;;23.67;12.15;;;8.80;99.90;;;;;;6183416;23;20012;-82
2023/10/25 04:05:39;;;;;;;19.63;12.73;;;8.80;99.90;;;;;;6182810;23;20074;-82
2023/10/25 04:08:05;;;;;;;18.05;12.13;;;8.90;99.90;;;;;;6208289;23;20012;-82
2023/10/25 04:10:31;;;;;;;21.33;12.15;;;8.80;99.90;;;;;;6180425;23;20111;-82
2023/10/25 04:12:56;;;;;;;23.85;12.63;;;8.80;99.90;;;;;;6207486;23;20094;-82
2023/10/25 04:15:22;;;;;;;21.45;12.40;;;8.70;99.90;;;;;;6182274;23;20016;-82
2023/10/25 04:17:48;;;;;;;27.23;11.88;;;8.60;99.90;;;;;;6183453;23;20020;-82
2023/10/25 04:20:13;;;;;;;20.42;11.13;;;8.60;99.90;;;;;;6182851;23;20419;-82
2023/10/25 04:22:39;;;;;;;23.75;11.63;;;8.70;99.90;;;;;;6181977;23;20027;-82
2023/10/25 04:25:05;;;;;;;21.60;11.25;;;8.60;99.90;;;;;;6205520;23;20295;-82
2023/10/25 04:27:31;;;;;;;21.67;11.38;;;8.60;99.90;;;;;;6207532;23;20371;-82
2023/10/25 04:29:57;;;;;;;20.35;12.13;;;8.60;99.90;;;;;;6207645;23;20364;-82
2023/10/25 04:32:23;;;;;;;22.38;11.68;;;8.60;99.90;;;;;;6182867;23;20020;-82
2023/10/25 04:34:48;;;;;;;23.40;11.20;;;8.60;99.90;;;;;;6207968;23;20019;-82
2023/10/25 04:37:14;;;;;;;17.98;10.57;;;8.50;99.90;;;;;;6182949;23;20047;-82
2023/10/25 04:39:40;;;;;;;22.52;10.98;;;8.60;99.90;;;;;;6183141;23;20410;-82
2023/10/25 04:42:05;;;;;;;17.85;10.45;;;8.40;99.90;;;;;;6179416;23;20027;-81
2023/10/25 04:44:31;;;;;;;18.75;11.20;;;8.50;99.90;;;;;;6182336;23;20012;-82
2023/10/25 04:46:57;;;;;;;19.63;11.00;;;8.40;99.90;;;;;;6182154;23;20341;-82
2023/10/25 04:49:28;;;;;;;22.50;10.95;;;8.50;99.90;;;;;;6182916;23;20016;-82
2023/10/25 04:51:54;;;;;;;18.75;11.35;;;8.40;99.90;;;;;;6181685;23;20016;-82
2023/10/25 04:54:19;;;;;;;22.52;11.50;;;8.50;99.90;;;;;;6182185;23;20094;-82
2023/10/25 04:56:45;;;;;;;17.60;10.55;;;8.40;99.90;;;;;;6179464;23;20328;-81
2023/10/25 04:59:11;;;;;;;17.33;10.90;;;8.40;99.90;;;;;;6182035;23;20362;-82
2023/10/25 05:01:36;;;;;;;17.55;10.60;;;8.30;99.90;;;;;;6206102;23;20020;-82
2023/10/25 05:04:02;;;;;;;23.55;10.55;;;8.40;99.90;;;;;;6207579;23;20004;-82
2023/10/25 05:06:28;;;;;;;21.75;10.32;;;8.30;99.90;;;;;;6180510;23;20416;-82
2023/10/25 05:08:54;;;;;;;18.42;10.25;;;8.40;99.90;;;;;;6207040;23;20019;-82
2023/10/25 05:11:25;;;;;;;26.38;11.07;;;8.30;99.90;;;;;;6178675;23;20028;-82
2023/10/25 05:13:51;;;;;;;17.15;9.93;;;8.30;99.90;;;;;;6207290;23;20020;-82
2023/10/25 05:16:17;;;;;;;26.52;11.32;;;8.20;99.90;;;;;;6205160;23;20016;-82
2023/10/25 05:18:43;;;;;;;21.70;10.63;;;8.20;99.90;;;;;;6181810;23;20020;-82
2023/10/25 05:21:14;;;;;;;17.60;10.88;;;8.40;99.90;;;;;;6181487;23;20019;-82
2023/10/25 05:23:40;;;;;;;20.23;10.18;;;8.20;99.90;;;;;;6207173;23;20016;-81
2023/10/25 05:26:06;;;;;;;22.10;11.30;;;8.30;99.90;;;;;;6179059;23;20016;-82
2023/10/25 05:28:32;;;;;;;22.33;10.93;;;8.20;99.90;;;;;;6181431;23;20083;-82
2023/10/25 05:31:01;;;;;;;18.33;10.30;;;8.10;99.90;;;;;;6180778;23;20458;-82
2023/10/25 05:33:30;;;;;;;23.40;10.57;;;8.10;99.90;;;;;;6232200;23;20012;-82
2023/10/25 05:35:56;;;;;;;19.55;9.90;;;8.20;99.90;;;;;;6205701;23;20074;-82
2023/10/25 05:38:22;;;;;;;16.52;10.20;;;8.20;99.90;;;;;;6206807;23;20012;-82
2023/10/25 05:40:51;;;;;;;15.35;10.70;;;8.20;99.90;;;;;;6203484;23;20017;-82
2023/10/25 05:43:27;;;;;;;18.35;11.23;;;8.20;99.90;;;;;;6205611;23;20012;-82
2023/10/25 05:45:53;;;;;;;18.98;7.75;;;8.20;99.90;;;;;;6230298;23;20321;-82
2023/10/25 05:48:19;;;;;;;12.00;7.93;;;8.10;99.90;;;;;;6206014;23;20319;-82
2023/10/25 05:50:49;;;;;;;14.55;7.78;;;8.20;99.90;;;;;;6206618;23;20012;-82
2023/10/25 05:53:15;;;;;;;15.02;7.70;;;8.00;99.90;;;;;;6207377;23;20020;-82
2023/10/25 05:55:41;;;;;;;17.23;8.05;;;8.00;99.90;;;;;;6205888;23;20012;-82
2023/10/25 05:58:08;;;;;;;14.98;7.38;;;7.90;99.90;;;;;;6208482;23;20018;-82
2023/10/25 06:00:34;;;;;;;14.32;7.85;;;8.00;99.90;;;;;;6208724;23;20016;-82
2023/10/25 06:03:01;;;;;;;17.90;7.97;;;8.00;99.90;;;;;;6209664;23;20016;-82
2023/10/25 06:05:32;;;;;;;12.55;7.78;;;7.90;99.90;;;;;;6208571;23;20008;-82
2023/10/25 06:07:58;;;;;;;18.30;7.50;;;8.00;99.90;;;;;;6209572;23;20038;-82
2023/10/25 06:10:24;;;;;;;14.82;7.57;;;8.10;99.90;;;;;;6205333;23;20016;-82
2023/10/25 06:12:50;;;;;;;11.55;7.20;;;8.10;99.90;;;;;;6207569;23;20099;-82
2023/10/25 06:15:16;;;;;;;12.65;7.30;;;8.00;99.90;;;;;;6182524;23;20016;-82
2023/10/25 06:17:41;;;;;;;15.00;7.53;;;8.10;99.90;;;;;;6207939;23;20042;-82
2023/10/25 06:20:08;;;;;;;16.00;7.80;;;8.00;99.90;;;;;;6208661;23;20027;-81
2023/10/25 06:22:33;;;;;;;13.40;7.60;;;7.90;99.90;;;;;;6183119;23;20016;-82
2023/10/25 06:24:59;;;;;;;13.88;7.55;;;8.10;99.90;;;;;;6206004;23;20022;-82
2023/10/25 06:27:25;;;;;;;14.50;7.53;;;8.00;99.90;;;;;;6207802;23;20020;-82
2023/10/25 06:29:54;;;;;;;13.00;7.03;;;8.10;99.90;;;;;;6183971;23;20018;-82
2023/10/25 06:32:23;;;;;;;14.00;7.50;;;8.00;99.90;;;;;;6208790;23;20167;-82
2023/10/25 06:34:48;;;;;;;16.15;7.80;;;8.00;99.90;;;;;;6209412;23;20016;-82
2023/10/25 06:37:17;;;;;;;17.35;7.10;;;8.00;99.90;;;;;;6208777;23;20041;-82
2023/10/25 06:39:49;;;;;;;18.13;7.65;;;8.00;99.90;;;;;;6209541;23;20420;-82
2023/10/25 06:42:15;;;;;;;11.90;7.78;;;8.10;99.90;;;;;;6207605;23;20108;-82
2023/10/25 06:44:42;;;;;;;14.35;7.45;;;8.10;99.90;;;;;;6184466;23;20022;-82
2023/10/25 06:47:11;;;;;;;13.02;7.07;;;8.10;99.90;;;;;;6207979;23;20161;-82
2023/10/25 06:49:37;;;;;;;14.07;7.45;;;8.00;99.90;;;;;;6209150;23;20004;-82
2023/10/25 06:52:03;;;;;;;18.42;8.45;;;8.00;99.90;;;;;;6208243;23;20075;-82
2023/10/25 06:54:28;;;;;;;13.40;7.30;;;8.10;99.90;;;;;;6209433;23;20020;-82
2023/10/25 06:56:54;;;;;;;17.30;6.93;;;8.20;99.90;;;;;;6180456;23;20016;-82
2023/10/25 06:59:20;;;;;;;17.42;6.95;;;8.20;99.90;;;;;;6209289;23;20145;-82
2023/10/25 07:01:53;;;;;;;14.02;6.40;;;8.20;99.90;;;;;;6208422;23;20402;-82
2023/10/25 07:04:22;;;;;;;16.38;7.32;;;8.20;99.90;;;;;;6183512;23;20436;-82
2023/10/25 07:06:49;;;;;;;15.68;7.10;;;8.20;99.90;;;;;;6208035;23;20012;-81
2023/10/25 07:09:15;;;;;;;13.85;6.97;;;8.30;99.90;;;;;;6210087;23;20008;-82
2023/10/25 07:11:41;;;;;;;13.63;7.30;;;8.30;99.90;;;;;;6206135;23;20012;-82
2023/10/25 07:14:07;;;;;;;17.05;7.38;;;8.30;99.90;;;;;;6208939;23;20082;-82
2023/10/25 07:16:32;;;;;;;13.77;7.53;;;8.40;99.90;;;;;;6208606;23;20471;-81
2023/10/25 07:18:58;;;;;;;14.00;6.82;;;8.40;99.90;;;;;;6208452;23;20433;-82
2023/10/25 07:21:24;;;;;;;15.30;7.50;;;8.40;99.90;;;;;;6207856;23;20183;-82
2023/10/25 07:23:49;;;;;;;15.80;8.15;;;8.40;99.90;;;;;;6208560;23;20020;-82
2023/10/25 07:26:15;;;;;;;14.20;7.45;;;8.50;99.90;;;;;;6181026;23;20214;-82
2023/10/25 07:28:41;;;;;;;16.23;7.95;;;8.40;99.90;;;;;;6209027;23;20008;-82
2023/10/25 07:31:07;;;;;;;16.52;8.30;;;8.50;99.90;;;;;;6208342;23;20469;-82
2023/10/25 07:33:33;;;;;;;15.65;7.15;;;8.50;99.90;;;;;;6208300;23;20086;-82
2023/10/25 07:36:03;;;;;;;12.30;7.57;;;8.60;99.90;;;;;;6207433;23;20008;-82
2023/10/25 07:38:28;;;;;;;12.45;7.15;;;8.50;99.90;;;;;;6233807;23;20172;-82
2023/10/25 07:40:54;;;;;;;13.05;7.07;;;8.50;99.90;;;;;;6205436;23;20269;-82
2023/10/25 07:43:20;;;;;;;14.93;7.72;;;8.60;99.90;;;;;;6206790;23;20075;-82
2023/10/25 07:45:46;;;;;;;14.65;7.13;;;8.50;99.90;;;;;;6207744;23;20350;-82
2023/10/25 07:48:11;;;;;;;11.77;7.28;;;8.60;99.90;;;;;;6233014;23;20023;-82
2023/10/25 07:50:37;;;;;;;11.13;7.28;;;8.60;99.90;;;;;;6207923;23;20016;-82
2023/10/25 07:53:03;;;;;;;14.10;7.38;;;8.70;99.90;;;;;;6208292;23;20012;-82
2023/10/25 07:55:28;;;;;;;14.52;7.55;;;8.80;99.90;;;;;;6205209;23;20109;-82
2023/10/25 07:57:54;;;;;;;15.15;7.03;;;8.70;99.90;;;;;;6182300;23;20028;-82
2023/10/25 08:00:20;;;;;;;14.15;7.65;;;8.80;99.90;;;;;;6182362;23;20016;-82
2023/10/25 08:02:45;;;;;;;16.58;7.68;;;9.00;99.90;;;;;;6207684;23;20352;-82
2023/10/25 08:05:11;;;;;;;12.55;7.68;;;9.00;99.90;;;;;;6207585;23;20019;-82
2023/10/25 08:07:37;;;;;;;15.23;7.85;;;9.00;99.90;;;;;;6207869;23;20134;-82
2023/10/25 08:10:06;;;;;;;13.15;7.38;;;9.00;99.90;;;;;;6180500;23;20018;-82
2023/10/25 08:12:35;;;;;;;18.60;8.45;;;9.20;99.90;;;;;;6207505;23;20090;-82
2023/10/25 08:15:02;;;;;;;12.07;6.85;;;9.30;99.90;;;;;;6207579;23;20016;-82
2023/10/25 08:17:27;;;;;;;12.10;7.18;;;9.40;99.90;;;;;;6207651;23;20487;-82
2023/10/25 08:19:56;;;;;;;11.05;7.15;;;9.40;99.90;;;;;;6208287;23;20023;-82
2023/10/25 08:22:21;;;;;;;12.35;6.80;;;9.50;99.90;;;;;;6201494;23;20102;-82
2023/10/25 08:24:47;;;;;;;13.85;7.68;;;9.50;99.90;;;;;;6175723;23;20017;-82
2023/10/25 08:27:13;;;;;;;15.98;7.50;;;9.70;99.90;;;;;;6199493;23;20158;-82
2023/10/25 08:29:38;;;;;;;14.00;7.80;;;9.80;99.90;;;;;;6202064;23;20023;-82
2023/10/25 08:32:05;;;;;;;14.25;6.95;;;10.00;99.90;;;;;;6175664;23;20092;-82
2023/10/25 08:34:30;;;;;;;11.07;7.78;;;9.90;99.90;;;;;;6202202;23;20017;-82
2023/10/25 08:36:56;;;;;;;13.63;7.40;;;10.10;99.90;;;;;;6200566;23;20019;-82
2023/10/25 08:39:22;;;;;;;14.75;7.15;;;10.20;99.90;;;;;;6178290;23;20020;-82
2023/10/25 08:41:50;;;;;;;12.40;7.10;;;10.30;99.90;;;;;;6175359;23;20350;-82
2023/10/25 08:44:16;;;;;;;14.80;7.13;;;10.40;99.90;;;;;;6202929;23;20286;-82
2023/10/25 08:46:42;;;;;;;13.75;7.38;;;10.30;99.90;;;;;;6201729;23;20435;-82
2023/10/25 08:49:08;;;;;;;16.63;7.97;;;10.50;99.90;;;;;;6201719;23;20012;-82
2023/10/25 08:51:37;;;;;;;15.30;7.40;;;10.70;99.90;;;;;;6200891;23;20573;-82
2023/10/25 08:54:03;;;;;;;15.68;7.43;;;10.70;99.90;;;;;;6152189;23;20048;-82
2023/10/25 08:56:29;;;;;;;11.75;7.07;;;10.80;99.90;;;;;;6223127;23;20027;-82
2023/10/25 08:58:59;;;;;;;14.35;8.15;;;11.00;99.90;;;;;;6202716;23;20020;-82
2023/10/25 09:01:26;;;;;;;14.70;7.13;;;10.90;99.90;;;;;;6202537;23;20052;-82
2023/10/25 09:03:51;;;;;;;13.70;6.80;;;11.00;99.90;;;;;;6177734;23;20091;-82
2023/10/25 09:06:25;;;;;;;15.20;7.32;;;11.00;99.90;;;;;;6201637;23;20139;-82
2023/10/25 09:09:07;;;;;;;12.00;6.72;;;11.10;99.90;;;;;;6201989;23;20313;-82
2023/10/25 09:11:44;;;;;;;11.38;7.32;;;11.10;99.90;;;;;;6198148;23;20063;-82
2023/10/25 09:14:11;;;;;;;14.38;7.05;;;11.10;99.90;;;;;;6202292;23;20098;-82
2023/10/25 09:16:40;;;;;;;13.85;6.57;;;11.30;99.90;;;;;;6202870;23;20016;-82
2023/10/25 09:19:06;;;;;;;16.48;6.78;;;11.30;99.90;;;;;;6177907;23;20012;-82
2023/10/25 09:21:32;;;;;;;14.38;6.88;;;11.30;99.90;;;;;;6180120;23;20168;-82
2023/10/25 09:24:07;;;;;;;13.05;6.53;;;11.40;99.90;;;;;;6182774;23;20085;-82
2023/10/25 09:26:39;;;;;;;12.98;6.60;;;11.40;99.90;;;;;;6204665;23;20016;-82
2023/10/25 09:29:06;;;;;;;14.95;6.53;;;11.30;99.90;;;;;;6207292;23;20016;-82
2023/10/25 09:31:31;;;;;;;11.23;6.32;;;11.40;99.90;;;;;;6206377;23;20019;-82
2023/10/25 09:33:58;;;;;;;12.23;7.22;;;11.60;99.90;;;;;;6208085;23;20373;-82
2023/10/25 09:36:25;;;;;;;11.85;6.65;;;11.50;99.90;;;;;;6206907;23;20019;-82
2023/10/25 09:38:52;;;;;;;10.80;6.45;;;11.60;99.90;;;;;;6233028;23;20012;-82
2023/10/25 09:41:19;;;;;;;10.45;6.20;;;11.80;99.90;;;;;;6179786;23;20016;-82
2023/10/25 09:43:48;;;;;;;15.38;7.07;;;12.00;99.90;;;;;;6207335;23;20323;-82
2023/10/25 09:46:18;;;;;;;10.13;7.13;;;11.80;99.90;;;;;;6182022;23;20398;-82
2023/10/25 09:48:55;;;;;;;13.50;7.43;;;12.00;99.90;;;;;;6208035;23;20012;-82
2023/10/25 09:51:41;;;;;;;12.70;7.40;;;12.00;99.90;;;;;;6206426;23;20065;-82
2023/10/25 09:54:12;;;;;;;14.60;7.15;;;12.30;99.90;;;;;;6207283;23;20123;-82
2023/10/25 09:56:39;;;;;;;10.50;7.03;;;12.30;99.90;;;;;;6204092;23;20518;-82
2023/10/25 09:59:07;;;;;;;16.05;7.28;;;12.40;99.90;;;;;;6207420;23;20012;-83
2023/10/25 10:01:33;;;;;;;14.88;6.63;;;12.50;99.90;;;;;;6206718;23;20325;-82
2023/10/25 10:04:30;;;;;;;12.65;6.63;;;12.50;99.90;;;;;;6207571;23;20089;-82
2023/10/25 10:07:07;;;;;;;12.45;6.82;;;12.70;99.90;;;;;;6206530;23;20016;-82
2023/10/25 10:09:43;;;;;;;16.17;7.00;;;12.70;99.90;;;;;;6207787;23;20062;-82
2023/10/25 10:12:11;;;;;;;13.40;6.25;;;12.70;99.90;;;;;;6204545;23;20087;-82
2023/10/25 10:14:38;;;;;;;12.40;5.95;;;12.70;99.90;;;;;;6207473;23;20022;-82
2023/10/25 10:17:14;;;;;;;9.23;5.75;;;13.20;99.90;;;;;;6206887;23;20477;-82
2023/10/25 10:19:43;;;;;;;9.75;5.72;;;13.20;99.90;;;;;;6207839;23;20585;-82
2023/10/25 10:22:13;;;;;;;9.70;5.97;;;13.40;99.90;;;;;;6207015;23;20534;-82
2023/10/25 10:24:45;;;;;;;7.13;5.13;;;13.60;99.90;;;;;;6207406;23;20503;-83
2023/10/25 10:27:40;;;;;;;11.02;5.57;;;13.50;99.90;;;;;;6204925;23;20346;-82
2023/10/25 10:30:39;;;;;;;6.35;4.82;;;14.00;99.90;;;;;;6179890;23;20016;-82
2023/10/25 10:33:11;;;;;;;8.10;4.93;;;14.00;99.90;;;;;;6208223;23;20024;-82
2023/10/25 10:35:49;;;;;;;14.48;5.68;;;13.90;99.90;;;;;;6181884;23;20020;-82
2023/10/25 10:38:15;;;;;;;8.85;5.00;;;14.00;99.90;;;;;;6233178;23;20462;-83
2023/10/25 10:40:41;;;;;;;13.98;5.22;;;13.90;99.90;;;;;;6205753;23;20016;-82
2023/10/25 10:43:07;;;;;;;7.57;4.80;;;13.90;99.90;;;;;;6208698;23;20030;-82
2023/10/25 10:45:34;;;;;;;8.63;4.80;;;13.80;99.90;;;;;;6208527;23;20027;-82
2023/10/25 10:48:21;;;;;;;8.80;4.80;;;14.00;99.90;;;;;;6209499;23;20063;-82
2023/10/25 10:50:49;;;;;;;7.80;4.15;;;14.10;99.90;;;;;;6208262;23;20070;-82
2023/10/25 10:53:15;;;;;;;8.23;4.35;;;14.10;99.90;;;;;;6209367;23;20416;-82
2023/10/25 10:55:41;;;;;;;8.07;4.32;;;14.10;99.90;;;;;;6205971;23;20484;-82
2023/10/25 10:58:07;;;;;;;9.48;4.13;;;14.00;99.90;;;;;;6208535;23;20528;-82
2023/10/25 11:00:33;;;;;;;6.75;3.90;;;13.90;99.90;;;;;;6208326;23;20027;-82
2023/10/25 11:03:02;;;;;;;6.47;3.78;;;14.00;99.90;;;;;;6208712;23;20020;-82
2023/10/25 11:05:27;;;;;;;6.30;4.05;;;14.00;99.90;;;;;;6183677;23;20516;-82
2023/10/25 11:07:56;;;;;;;7.10;3.70;;;14.20;99.90;;;;;;6209256;23;20020;-82
2023/10/25 11:10:22;;;;;;;9.85;4.15;;;14.10;99.90;;;;;;6206409;23;20047;-82
2023/10/25 11:12:47;;;;;;;9.85;3.85;;;14.30;99.90;;;;;;6208096;23;20023;-82
2023/10/25 11:15:13;;;;;;;7.32;3.65;;;14.30;99.90;;;;;;6208777;23;20016;-82
2023/10/25 11:17:40;;;;;;;6.82;3.63;;;14.20;99.90;;;;;;6209012;23;20024;-82
2023/10/25 11:20:06;;;;;;;10.90;3.70;;;14.20;99.90;;;;;;6208836;23;20448;-83
2023/10/25 11:22:33;;;;;;;9.25;3.80;;;14.10;99.90;;;;;;6207800;23;20012;-82
2023/10/25 11:24:59;;;;;;;9.60;4.13;;;13.90;99.90;;;;;;6206920;23;20038;-83
2023/10/25 11:27:32;;;;;;;6.55;4.03;;;13.90;99.90;;;;;;6207927;23;20312;-82
2023/10/25 11:30:00;;;;;;;6.90;3.70;;;13.80;99.90;;;;;;6207847;23;20027;-82
2023/10/25 11:32:28;;;;;;;7.90;4.10;;;13.90;99.90;;;;;;6183366;23;20020;-83
2023/10/25 11:34:56;;;;;;;7.00;3.70;;;14.00;99.90;;;;;;6208734;23;20527;-82
2023/10/25 11:37:22;;;;;;;7.18;4.10;;;13.80;99.90;;;;;;6208089;23;20019;-82
2023/10/25 11:40:00;;;;;;;7.03;3.80;;;13.90;99.90;;;;;;6207460;23;20090;-82
2023/10/25 11:42:27;;;;;;;5.38;4.20;;;13.70;99.90;;;;;;6208082;23;20020;-82
2023/10/25 11:44:54;;;;;;;6.25;3.80;;;13.60;99.90;;;;;;6208871;23;20035;-82
2023/10/25 11:47:22;;;;;;;8.38;4.45;;;13.60;99.90;;;;;;6208359;23;20044;-82
2023/10/25 11:49:53;;;;;;;7.55;4.10;;;13.60;99.90;;;;;;6208062;23;20066;-82
2023/10/25 11:52:28;;;;;;;7.78;4.20;;;13.70;99.90;;;;;;6207839;23;20095;-82
2023/10/25 11:54:59;;;;;;;7.40;4.20;;;13.60;99.90;;;;;;6207352;23;20019;-83
2023/10/25 11:57:28;;;;;;;7.63;4.07;;;13.60;99.90;;;;;;6207476;23;20103;-82
2023/10/25 11:59:53;;;;;;;5.95;3.83;;;13.40;99.90;;;;;;6208025;23;20008;-82
2023/10/25 12:02:21;;;;;;;14.25;4.30;;;13.40;99.90;;;;;;6182793;23;20463;-82
2023/10/25 12:04:51;;;;;;;8.18;4.30;;;13.30;99.90;;;;;;6208128;23;20011;-82
2023/10/25 12:07:19;;;;;;;8.30;3.97;;;13.30;99.90;;;;;;6207587;23;20023;-82
2023/10/25 12:09:52;;;;;;;6.38;4.10;;;13.30;99.90;;;;;;6207894;23;20168;-82
2023/10/25 12:12:18;;;;;;;9.82;3.95;;;13.30;99.90;;;;;;6206884;23;20039;-82
2023/10/25 12:14:44;;;;;;;8.02;4.20;;;13.20;99.90;;;;;;6233486;23;20038;-82
2023/10/25 12:17:10;;;;;;;5.60;4.00;;;13.10;99.90;;;;;;6207497;23;20463;-82
2023/10/25 12:19:39;;;;;;;5.32;3.70;;;13.10;99.90;;;;;;6208476;23;20012;-82
2023/10/25 12:22:07;;;;;;;6.40;3.80;;;13.00;99.90;;;;;;6181844;23;20324;-82
2023/10/25 12:24:33;;;;;;;6.13;3.90;;;13.10;99.90;;;;;;6208406;23;20446;-82
2023/10/25 12:27:00;;;;;;;7.68;4.20;;;13.00;99.90;;;;;;6204695;23;20019;-82
2023/10/25 12:29:25;;;;;;;6.75;4.05;;;13.10;99.90;;;;;;6208051;23;20020;-82
2023/10/25 12:31:51;;;;;;;7.70;4.25;;;13.10;99.90;;;;;;6207249;23;20016;-82
2023/10/25 12:34:17;;;;;;;7.07;3.83;;;13.00;99.90;;;;;;6183230;23;20013;-82
2023/10/25 12:36:42;;;;;;;10.52;4.13;;;12.90;99.90;;;;;;6207265;23;20202;-82
2023/10/25 12:39:08;;;;;;;7.80;3.95;;;13.00;99.90;;;;;;6183339;23;20027;-82
2023/10/25 12:41:34;;;;;;;9.32;4.10;;;13.00;99.90;;;;;;6229872;23;20024;-82
2023/10/25 12:44:04;;;;;;;6.03;4.18;;;13.00;99.90;;;;;;6182595;23;20514;-82